Time;durP1;ratioP1;P1;durP2;ratioP2;P2;SDS_P1;SDS_P2;PMS_P1;PMS_P2;Temp;Humidity;BMP_temperature;BMP_pressure;BME280_temperature;BME280_humidity;BME280_pressure;Samples;Min_cycle;Max_cycle;Signal;HPM_P1;HPM_P2
2023/06/12 00:00:01;;;;;;;;;;;21.10;99.90;20.90;99213.00;;;;343624;28;82535;-93
2023/06/12 00:00:13;;;;;;;;;;;21.00;99.90;20.90;99219.00;;;;341689;28;90571;-93
2023/06/12 00:00:26;;;;;;;;;;;21.10;99.90;21.00;99212.00;;;;339626;28;83477;-93
2023/06/12 00:00:38;;;;;;;;;;;21.00;99.90;21.00;99212.00;;;;341618;28;90512;-93
2023/06/12 00:00:51;;;;;;;;;;;21.00;99.90;21.00;99221.00;;;;340819;28;82652;-93
2023/06/12 00:01:03;;;;;;;;;;;21.00;99.90;21.00;99216.00;;;;341693;28;89396;-93
2023/06/12 00:01:17;;;;;;;;;;;21.00;99.90;20.90;99220.00;;;;341961;28;83396;-93
2023/06/12 00:01:29;;;;;;;;;;;21.00;99.90;20.90;99219.00;;;;342921;28;90505;-93
2023/06/12 00:01:41;;;;;;;;;;;21.00;99.90;20.90;99217.00;;;;343429;28;83501;-93
2023/06/12 00:01:53;;;;;;;;;;;21.00;99.90;20.90;99219.00;;;;343030;28;89768;-93
2023/06/12 00:02:05;;;;;;;;;;;21.00;99.90;21.00;99217.00;;;;342010;28;83365;-93
2023/06/12 00:02:17;;;;;;;;;;;21.00;99.90;21.00;99208.00;;;;340231;28;91531;-92
2023/06/12 00:02:31;;;;;;;;;;;21.00;99.90;21.00;99216.00;;;;340592;28;83451;-93
2023/06/12 00:02:44;;;;;;;;;;;21.00;99.90;21.10;99214.00;;;;341397;28;91399;-93
2023/06/12 00:02:57;;;;;;;;;;;21.00;99.90;21.10;99213.00;;;;341784;28;83447;-94
2023/06/12 00:03:09;;;;;;;;;;;21.00;99.90;21.00;99216.00;;;;341561;28;91317;-93
2023/06/12 00:03:25;;;;;;;;;;;21.00;99.90;20.90;99210.00;;;;340689;28;83564;-92
2023/06/12 00:03:37;;;;;;;;;;;21.00;99.90;21.00;99214.00;;;;342744;28;91535;-92
2023/06/12 00:03:50;;;;;;;;;;;21.00;99.90;21.10;99209.00;;;;343163;28;83553;-93
2023/06/12 00:04:02;;;;;;;;;;;21.00;99.90;21.10;99209.00;;;;342756;28;90180;-93
2023/06/12 00:04:15;;;;;;;;;;;21.00;99.90;21.10;99212.00;;;;341987;28;82557;-92
2023/06/12 00:04:27;;;;;;;;;;;21.00;99.90;21.00;99210.00;;;;341501;28;92455;-93
2023/06/12 00:04:39;;;;;;;;;;;21.00;99.90;21.10;99212.00;;;;341937;28;83590;-93
2023/06/12 00:04:54;;;;;;;;;;;21.00;99.90;21.10;99214.00;;;;340104;28;90590;-93
2023/06/12 00:05:08;;;;;;;;;;;21.00;99.90;21.20;99216.00;;;;341757;28;83422;-93
2023/06/12 00:05:20;;;;;;;;;;;21.00;99.90;21.20;99205.00;;;;340157;28;89209;-93
2023/06/12 00:05:32;;;;;;;;;;;21.00;99.90;21.20;99208.00;;;;339374;28;83466;-92
2023/06/12 00:05:44;;;;;;;;;;;21.00;99.90;21.20;99214.00;;;;338729;28;90633;-93
2023/06/12 00:05:59;;;;;;;;;;;21.00;99.90;21.20;99214.00;;;;339143;28;83482;-92
2023/06/12 00:06:11;;;;;;;;;;;21.00;99.90;21.10;99215.00;;;;341390;28;89797;-93
2023/06/12 00:06:23;;;;;;;;;;;21.00;99.90;21.20;99216.00;;;;343425;28;83395;-93
2023/06/12 00:06:38;;;;;;;;;;;21.00;99.90;21.20;99213.00;;;;342788;28;92182;-93
2023/06/12 00:06:50;;;;;;;;;;;21.00;99.90;21.10;99213.00;;;;340722;28;83453;-93
2023/06/12 00:07:02;;;;;;;;;;;21.00;99.90;21.20;99213.00;;;;340354;28;91026;-93
2023/06/12 00:07:16;;;;;;;;;;;21.00;99.90;21.20;99202.00;;;;340495;28;82615;-93
2023/06/12 00:07:28;;;;;;;;;;;21.00;99.90;21.10;99206.00;;;;341346;28;90905;-93
2023/06/12 00:07:40;;;;;;;;;;;21.00;99.90;21.10;99210.00;;;;339385;28;82577;-93
2023/06/12 00:07:55;;;;;;;;;;;21.00;99.90;21.10;99215.00;;;;342678;28;90681;-94
2023/06/12 00:08:08;;;;;;;;;;;21.00;99.90;21.10;99218.00;;;;342088;28;83351;-93
2023/06/12 00:08:22;;;;;;;;;;;21.00;99.90;21.10;99209.00;;;;340045;28;89525;-93
2023/06/12 00:08:34;;;;;;;;;;;21.00;99.90;21.10;99206.00;;;;341987;28;83483;-93
2023/06/12 00:08:46;;;;;;;;;;;21.00;99.90;21.10;99217.00;;;;342768;28;90703;-93
2023/06/12 00:08:58;;;;;;;;;;;21.00;99.90;21.10;99215.00;;;;340487;28;82511;-93
2023/06/12 00:09:10;;;;;;;;;;;21.00;99.90;21.00;99210.00;;;;342714;28;90450;-93
2023/06/12 00:09:21;;;;;;;;;;;21.00;99.90;21.10;99209.00;;;;343419;28;83277;-92
2023/06/12 00:09:33;;;;;;;;;;;21.00;99.90;21.20;99213.00;;;;341526;28;91737;-93
2023/06/12 00:09:45;;;;;;;;;;;21.00;99.90;21.00;99218.00;;;;340629;28;83425;-93
2023/06/12 00:09:57;;;;;;;;;;;21.00;99.90;21.00;99215.00;;;;340216;28;90616;-93
2023/06/12 00:10:09;;;;;;;;;;;21.00;99.90;21.00;99213.00;;;;340733;28;83407;-93
2023/06/12 00:10:22;;;;;;;;;;;21.00;99.90;21.10;99213.00;;;;341644;28;90231;-93
2023/06/12 00:10:34;;;;;;;;;;;21.00;99.90;21.00;99213.00;;;;340504;28;82597;-93
2023/06/12 00:10:47;;;;;;;;;;;21.00;99.90;20.90;99212.00;;;;341905;28;92018;-93
2023/06/12 00:10:59;;;;;;;;;;;21.00;99.90;20.90;99214.00;;;;342366;28;82484;-93
2023/06/12 00:11:12;;;;;;;;;;;21.00;99.90;20.90;99210.00;;;;340302;28;89636;-93
2023/06/12 00:11:25;;;;;;;;;;;21.00;99.90;20.80;99219.00;;;;341892;28;82941;-92
2023/06/12 00:11:40;;;;;;;;;;;21.00;99.90;20.90;99214.00;;;;341462;28;90223;-93
2023/06/12 00:11:52;;;;;;;;;;;21.00;99.90;20.90;99216.00;;;;341856;28;82685;-94
2023/06/12 00:12:04;;;;;;;;;;;21.00;99.90;20.90;99213.00;;;;341537;28;91474;-92
2023/06/12 00:12:16;;;;;;;;;;;20.90;99.90;20.90;99217.00;;;;342039;28;83410;-92
2023/06/12 00:12:28;;;;;;;;;;;21.00;99.90;20.90;99215.00;;;;343685;28;90785;-92
2023/06/12 00:12:40;;;;;;;;;;;20.90;99.90;21.00;99206.00;;;;343147;28;83516;-93
2023/06/12 00:12:52;;;;;;;;;;;20.90;99.90;21.00;99216.00;;;;342595;28;91555;-93
2023/06/12 00:13:05;;;;;;;;;;;20.90;99.90;21.20;99206.00;;;;343394;28;82572;-93
2023/06/12 00:13:16;;;;;;;;;;;20.90;99.90;21.20;99205.00;;;;344154;28;90804;-92
2023/06/12 00:13:28;;;;;;;;;;;20.90;99.90;21.10;99205.00;;;;342189;28;83505;-93
2023/06/12 00:13:45;;;;;;;;;;;21.00;99.90;21.10;99210.00;;;;341822;28;91292;-93
2023/06/12 00:13:57;;;;;;;;;;;20.90;99.90;21.20;99210.00;;;;340771;28;83383;-92
2023/06/12 00:14:09;;;;;;;;;;;21.00;99.90;21.20;99216.00;;;;343244;28;89874;-92
2023/06/12 00:14:21;;;;;;;;;;;21.00;99.90;21.20;99213.00;;;;340753;28;82644;-92
2023/06/12 00:14:32;;;;;;;;;;;21.00;99.90;21.20;99208.00;;;;341778;28;89872;-93
2023/06/12 00:14:44;;;;;;;;;;;21.00;99.90;21.30;99207.00;;;;343503;28;83536;-92
2023/06/12 00:14:56;;;;;;;;;;;21.00;99.90;21.20;99208.00;;;;343132;28;91292;-93
2023/06/12 00:15:08;;;;;;;;;;;21.00;99.90;21.10;99215.00;;;;342090;28;82566;-93
2023/06/12 00:15:20;;;;;;;;;;;21.00;99.90;21.10;99207.00;;;;341828;28;91249;-92
2023/06/12 00:15:31;;;;;;;;;;;21.00;99.90;21.10;99213.00;;;;342100;28;83495;-93
2023/06/12 00:15:43;;;;;;;;;;;21.00;99.90;21.00;99207.00;;;;340662;28;90050;-94
2023/06/12 00:15:55;;;;;;;;;;;21.00;99.90;21.00;99213.00;;;;341736;28;82584;-92
2023/06/12 00:16:07;;;;;;;;;;;20.90;99.90;21.00;99214.00;;;;342877;28;90247;-93
2023/06/12 00:18:39;;;;;;;;;;;20.90;99.90;21.00;99217.00;;;;320210;22;94960;-94
2023/06/12 00:18:51;;;;;;;;;;;20.90;99.90;21.00;99207.00;;;;342232;28;83449;-93
2023/06/12 00:19:03;;;;;;;;;;;20.90;99.90;21.10;99213.00;;;;340243;28;90562;-94
2023/06/12 00:19:15;;;;;;;;;;;20.90;99.90;21.00;99212.00;;;;340377;28;82512;-94
2023/06/12 00:19:27;;;;;;;;;;;20.90;99.90;21.00;99216.00;;;;340188;28;90663;-94
2023/06/12 00:19:39;;;;;;;;;;;20.90;99.90;20.90;99202.00;;;;336633;28;83475;-94
2023/06/12 00:19:51;;;;;;;;;;;20.90;99.90;20.90;99216.00;;;;340172;28;89245;-93
2023/06/12 00:20:05;;;;;;;;;;;20.90;99.90;21.10;99210.00;;;;340661;28;83440;-95
2023/06/12 00:20:17;;;;;;;;;;;20.90;99.90;21.10;99213.00;;;;338786;28;92939;-95
2023/06/12 00:20:29;;;;;;;;;;;20.90;99.90;21.10;99213.00;;;;339414;28;82601;-94
2023/06/12 00:20:41;;;;;;;;;;;20.90;99.90;21.00;99210.00;;;;339044;28;89896;-94
2023/06/12 00:20:53;;;;;;;;;;;20.90;99.90;21.00;99212.00;;;;339309;28;82494;-94
2023/06/12 00:21:08;;;;;;;;;;;20.90;99.90;21.00;99208.00;;;;338978;28;90476;-94
2023/06/12 00:21:22;;;;;;;;;;;20.90;99.90;21.00;99212.00;;;;339445;28;82466;-94
2023/06/12 00:21:35;;;;;;;;;;;20.90;99.90;21.00;99204.00;;;;338886;28;91659;-93
2023/06/12 00:21:47;;;;;;;;;;;20.90;99.90;21.00;99210.00;;;;340700;28;83402;-93
2023/06/12 00:22:00;;;;;;;;;;;20.90;99.90;21.00;99205.00;;;;340251;28;91387;-94
2023/06/12 00:22:11;;;;;;;;;;;20.90;99.90;21.10;99216.00;;;;335248;29;83317;-94
2023/06/12 00:22:23;;;;;;;;;;;20.90;99.90;21.20;99209.00;;;;338764;28;91870;-94
2023/06/12 00:22:40;;;;;;;;;;;20.90;99.90;21.20;99216.00;;;;341795;28;83290;-94
2023/06/12 00:22:52;;;;;;;;;;;20.90;99.90;21.20;99209.00;;;;337443;28;91518;-94
2023/06/12 00:23:04;;;;;;;;;;;20.90;99.90;21.10;99212.00;;;;340705;28;83368;-93
2023/06/12 00:23:16;;;;;;;;;;;20.90;99.90;21.10;99202.00;;;;340275;28;90656;-94
2023/06/12 00:23:28;;;;;;;;;;;21.00;99.90;21.00;99212.00;;;;338029;28;83356;-94
2023/06/12 00:23:41;;;;;;;;;;;20.90;99.90;21.00;99209.00;;;;338913;28;91052;-94
2023/06/12 00:23:52;;;;;;;;;;;20.90;99.90;20.90;99207.00;;;;339474;28;82418;-93
2023/06/12 00:24:08;;;;;;;;;;;20.90;99.90;21.00;99201.00;;;;337575;28;91781;-94
2023/06/12 00:24:20;;;;;;;;;;;20.90;99.90;21.00;99213.00;;;;340776;28;82536;-93
2023/06/12 00:24:32;;;;;;;;;;;20.90;99.90;20.90;99204.00;;;;340241;28;90867;-94
2023/06/12 00:24:44;;;;;;;;;;;20.90;99.90;21.00;99202.00;;;;339335;28;82484;-94
2023/06/12 00:24:56;;;;;;;;;;;20.90;99.90;21.10;99205.00;;;;340220;28;91754;-93
2023/06/12 00:25:08;;;;;;;;;;;20.90;99.90;21.10;99209.00;;;;339318;28;82541;-94
2023/06/12 00:25:20;;;;;;;;;;;20.90;99.90;21.20;99209.00;;;;337586;28;90180;-93
2023/06/12 00:25:32;;;;;;;;;;;20.90;99.90;21.10;99210.00;;;;341948;28;83461;-93
2023/06/12 00:25:44;;;;;;;;;;;20.90;99.90;21.10;99203.00;;;;338870;28;91367;-94
2023/06/12 00:25:56;;;;;;;;;;;20.90;99.90;21.10;99211.00;;;;340712;28;83393;-93
2023/06/12 00:26:11;;;;;;;;;;;20.90;99.90;21.10;99205.00;;;;340171;28;91453;-93
2023/06/12 00:26:23;;;;;;;;;;;20.90;99.90;21.20;99199.00;;;;341995;28;82482;-93
2023/06/12 00:26:35;;;;;;;;;;;20.90;99.90;21.10;99204.00;;;;338908;28;89942;-94
2023/06/12 00:26:47;;;;;;;;;;;20.90;99.90;21.10;99208.00;;;;339211;28;83504;-93
2023/06/12 00:26:59;;;;;;;;;;;20.90;99.90;21.00;99201.00;;;;340157;28;91892;-94
2023/06/12 00:27:11;;;;;;;;;;;20.90;99.90;21.10;99208.00;;;;340650;28;82553;-94
2023/06/12 00:27:23;;;;;;;;;;;20.90;99.90;21.10;99203.00;;;;341578;28;90969;-94
2023/06/12 00:27:35;;;;;;;;;;;20.90;99.90;21.00;99201.00;;;;339244;28;83382;-94
2023/06/12 00:27:47;;;;;;;;;;;20.90;99.90;21.10;99195.00;;;;340262;28;90545;-94
2023/06/12 00:27:59;;;;;;;;;;;20.90;99.90;21.10;99196.00;;;;340811;28;83169;-94
2023/06/12 00:28:11;;;;;;;;;;;20.90;99.90;21.00;99200.00;;;;339040;28;89196;-94
2023/06/12 00:28:22;;;;;;;;;;;20.90;99.90;21.20;99205.00;;;;339523;28;83573;-94
2023/06/12 00:28:34;;;;;;;;;;;20.90;99.90;21.20;99205.00;;;;339271;28;91646;-95
2023/06/12 00:28:46;;;;;;;;;;;20.90;99.90;21.20;99208.00;;;;339549;28;83415;-94
2023/06/12 00:28:58;;;;;;;;;;;20.90;99.90;21.10;99207.00;;;;337922;28;91535;-93
2023/06/12 00:29:10;;;;;;;;;;;20.90;99.90;21.00;99202.00;;;;342455;28;82608;-93
2023/06/12 00:29:22;;;;;;;;;;;20.90;99.90;21.00;99202.00;;;;340526;28;91130;-94
2023/06/12 00:29:33;;;;;;;;;;;20.90;99.90;21.00;99205.00;;;;340782;28;82557;-94
2023/06/12 00:29:45;;;;;;;;;;;20.90;99.90;21.00;99196.00;;;;340447;28;91674;-93
2023/06/12 00:29:57;;;;;;;;;;;20.90;99.90;21.00;99198.00;;;;337157;28;82477;-93
2023/06/12 00:30:10;;;;;;;;;;;20.90;99.90;21.00;99203.00;;;;339241;28;90812;-94
2023/06/12 00:30:22;;;;;;;;;;;20.90;99.90;21.00;99206.00;;;;339720;28;83487;-94
2023/06/12 00:30:34;;;;;;;;;;;20.90;99.90;20.90;99202.00;;;;340638;28;92135;-94
2023/06/12 00:30:46;;;;;;;;;;;20.90;99.90;20.80;99200.00;;;;339692;28;82481;-93
2023/06/12 00:30:58;;;;;;;;;;;20.80;99.90;20.70;99209.00;;;;339248;28;89556;-93
2023/06/12 00:31:09;;;;;;;;;;;20.90;99.90;20.70;99206.00;;;;339634;28;82495;-93
2023/06/12 00:31:21;;;;;;;;;;;20.80;99.90;20.80;99198.00;;;;340586;28;91820;-94
2023/06/12 00:31:33;;;;;;;;;;;20.90;99.90;20.80;99196.00;;;;340706;28;82418;-93
2023/06/12 00:31:45;;;;;;;;;;;20.80;99.90;20.90;99201.00;;;;338958;28;91348;-94
2023/06/12 00:31:57;;;;;;;;;;;20.80;99.90;20.90;99192.00;;;;338195;28;83302;-94
2023/06/12 00:32:09;;;;;;;;;;;20.80;99.90;20.80;99198.00;;;;337466;28;90646;-93
2023/06/12 00:32:21;;;;;;;;;;;20.80;99.90;20.80;99206.00;;;;340702;28;83367;-94
2023/06/12 00:32:33;;;;;;;;;;;20.80;99.90;20.80;99199.00;;;;340069;28;92636;-94
2023/06/12 00:32:45;;;;;;;;;;;20.80;99.90;20.70;99204.00;;;;337970;28;83213;-93
2023/06/12 00:32:57;;;;;;;;;;;20.80;99.90;20.80;99207.00;;;;340221;28;90013;-94
2023/06/12 00:33:09;;;;;;;;;;;20.80;99.90;20.90;99204.00;;;;339277;28;82440;-93
2023/06/12 00:33:21;;;;;;;;;;;20.80;99.90;20.90;99204.00;;;;340005;28;90594;-94
2023/06/12 00:33:33;;;;;;;;;;;20.80;99.90;20.80;99197.00;;;;340576;28;83452;-93
2023/06/12 00:33:45;;;;;;;;;;;20.80;99.90;20.70;99201.00;;;;337602;28;91414;-94
2023/06/12 00:33:57;;;;;;;;;;;20.80;99.90;20.60;99202.00;;;;339444;28;83363;-94
2023/06/12 00:34:10;;;;;;;;;;;20.80;99.90;20.50;99197.00;;;;340121;28;90287;-94
2023/06/12 00:34:21;;;;;;;;;;;20.80;99.90;20.50;99197.00;;;;337986;28;83413;-94
2023/06/12 00:34:33;;;;;;;;;;;20.70;99.90;20.50;99202.00;;;;340273;28;91447;-94
2023/06/12 00:34:45;;;;;;;;;;;20.80;99.90;20.40;99203.00;;;;340706;28;82558;-94
2023/06/12 00:34:57;;;;;;;;;;;20.70;99.90;20.40;99206.00;;;;338787;28;89801;-94
2023/06/12 00:35:09;;;;;;;;;;;20.70;99.90;20.50;99193.00;;;;339003;28;83488;-94
2023/06/12 00:35:21;;;;;;;;;;;20.70;99.90;20.50;99200.00;;;;339722;28;90594;-94
2023/06/12 00:35:33;;;;;;;;;;;20.70;99.90;20.50;99198.00;;;;341969;28;82497;-93
2023/06/12 00:35:45;;;;;;;;;;;20.70;99.90;20.60;99194.00;;;;340223;28;91107;-94
2023/06/12 00:35:57;;;;;;;;;;;20.70;99.90;20.70;99198.00;;;;342070;28;82485;-94
2023/06/12 00:36:09;;;;;;;;;;;20.70;99.90;20.70;99204.00;;;;338898;28;90563;-94
2023/06/12 00:36:22;;;;;;;;;;;20.70;99.90;20.70;99200.00;;;;340582;28;83306;-94
2023/06/12 00:36:34;;;;;;;;;;;20.70;99.90;20.70;99189.00;;;;341514;28;92084;-93
2023/06/12 00:36:48;;;;;;;;;;;20.70;99.90;20.70;99197.00;;;;339225;28;83409;-94
2023/06/12 00:37:00;;;;;;;;;;;20.70;99.90;20.80;99200.00;;;;340130;28;90321;-93
2023/06/12 00:37:12;;;;;;;;;;;20.70;99.90;20.80;99200.00;;;;339290;28;82500;-93
2023/06/12 00:37:25;;;;;;;;;;;20.70;99.90;20.80;99198.00;;;;338564;28;92000;-94
2023/06/12 00:37:41;;;;;;;;;;;20.60;99.90;20.80;99194.00;;;;341974;28;82503;-94
2023/06/12 00:37:53;;;;;;;;;;;20.70;99.90;20.60;99189.00;;;;338887;28;90862;-94
2023/06/12 00:38:06;;;;;;;;;;;20.70;99.90;20.50;99197.00;;;;339351;28;83436;-94
2023/06/12 00:38:19;;;;;;;;;;;20.70;99.90;20.50;99192.00;;;;340191;28;90389;-94
2023/06/12 00:38:34;;;;;;;;;;;20.60;99.90;20.60;99200.00;;;;339210;28;82573;-94
2023/06/12 00:38:46;;;;;;;;;;;20.60;99.90;20.40;99198.00;;;;338741;28;92124;-93
2023/06/12 00:38:58;;;;;;;;;;;20.60;99.90;20.50;99202.00;;;;339291;28;83532;-95
2023/06/12 00:39:10;;;;;;;;;;;20.60;99.90;20.50;99194.00;;;;340260;28;91770;-94
2023/06/12 00:39:22;;;;;;;;;;;20.60;99.90;20.50;99194.00;;;;340606;28;83441;-94
2023/06/12 00:39:34;;;;;;;;;;;20.50;99.90;20.50;99189.00;;;;340155;28;90514;-94
2023/06/12 00:39:46;;;;;;;;;;;20.50;99.90;20.40;99198.00;;;;341937;28;82507;-94
2023/06/12 00:39:58;;;;;;;;;;;20.50;99.90;20.30;99197.00;;;;340224;28;91927;-94
2023/06/12 00:40:10;;;;;;;;;;;20.50;99.90;20.40;99191.00;;;;341950;28;83334;-94
2023/06/12 00:40:22;;;;;;;;;;;20.50;99.90;20.50;99190.00;;;;338947;28;90287;-93
2023/06/12 00:40:34;;;;;;;;;;;20.50;99.90;20.60;99189.00;;;;337976;28;83448;-94
2023/06/12 00:40:46;;;;;;;;;;;20.50;99.90;20.70;99187.00;;;;339929;28;92150;-93
2023/06/12 00:40:58;;;;;;;;;;;20.50;99.90;20.70;99190.00;;;;339383;28;82468;-92
2023/06/12 00:41:10;;;;;;;;;;;20.50;99.90;20.60;99190.00;;;;341646;28;89905;-93
2023/06/12 00:41:23;;;;;;;;;;;20.50;99.90;20.50;99182.00;;;;340665;28;82609;-93
2023/06/12 00:41:34;;;;;;;;;;;20.50;99.90;20.40;99194.00;;;;340101;28;91312;-93
2023/06/12 00:41:46;;;;;;;;;;;20.50;99.90;20.40;99194.00;;;;340586;28;83407;-92
2023/06/12 00:41:58;;;;;;;;;;;20.50;99.90;20.50;99190.00;;;;337565;28;91291;-93
2023/06/12 00:42:10;;;;;;;;;;;20.50;99.90;20.50;99191.00;;;;340572;28;83473;-94
2023/06/12 00:42:22;;;;;;;;;;;20.50;99.90;20.50;99186.00;;;;341576;28;91627;-93
2023/06/12 00:42:35;;;;;;;;;;;20.50;99.90;20.50;99185.00;;;;342032;28;82567;-93
2023/06/12 00:42:50;;;;;;;;;;;20.50;99.90;20.40;99192.00;;;;337436;28;92958;-93
2023/06/12 00:43:02;;;;;;;;;;;20.50;99.90;20.40;99195.00;;;;339222;28;83524;-93
2023/06/12 00:43:14;;;;;;;;;;;20.50;99.90;20.40;99187.00;;;;338638;28;90071;-93
2023/06/12 00:43:25;;;;;;;;;;;20.50;99.90;20.50;99187.00;;;;339287;28;83479;-93
2023/06/12 00:43:38;;;;;;;;;;;20.50;99.90;20.50;99187.00;;;;339933;28;90216;-93
2023/06/12 00:43:53;;;;;;;;;;;20.50;99.90;20.60;99184.00;;;;339343;28;82590;-94
2023/06/12 00:44:05;;;;;;;;;;;20.50;99.90;20.60;99188.00;;;;337460;28;91354;-93
2023/06/12 00:44:17;;;;;;;;;;;20.50;99.90;20.60;99190.00;;;;341857;28;83476;-93
2023/06/12 00:44:28;;;;;;;;;;;20.50;99.90;20.60;99196.00;;;;342896;28;90444;-93
2023/06/12 00:44:40;;;;;;;;;;;20.50;99.90;20.70;99181.00;;;;339398;28;83389;-93
2023/06/12 00:44:52;;;;;;;;;;;20.50;99.90;20.70;99186.00;;;;337490;28;90527;-93
2023/06/12 00:45:05;;;;;;;;;;;20.50;99.90;20.80;99185.00;;;;337947;28;82663;-94
2023/06/12 00:45:18;;;;;;;;;;;20.50;99.90;20.80;99185.00;;;;340227;28;90252;-93
2023/06/12 00:45:30;;;;;;;;;;;20.50;99.90;20.80;99189.00;;;;340589;28;82517;-93
2023/06/12 00:45:42;;;;;;;;;;;20.50;99.90;20.80;99187.00;;;;340221;28;91185;-93
2023/06/12 00:45:55;;;;;;;;;;;20.50;99.90;20.80;99182.00;;;;339125;28;83440;-93
2023/06/12 00:46:07;;;;;;;;;;;20.50;99.90;20.80;99195.00;;;;338881;28;91495;-93
2023/06/12 00:46:19;;;;;;;;;;;20.50;99.90;20.80;99194.00;;;;339376;28;82517;-93
2023/06/12 00:46:31;;;;;;;;;;;20.50;99.90;20.90;99188.00;;;;334863;29;91435;-94
2023/06/12 00:46:43;;;;;;;;;;;20.50;99.90;20.90;99193.00;;;;339248;28;83506;-93
2023/06/12 00:46:55;;;;;;;;;;;20.50;99.90;20.80;99192.00;;;;338722;28;92896;-93
2023/06/12 00:47:08;;;;;;;;;;;20.50;99.90;20.70;99189.00;;;;335398;29;82780;-93
2023/06/12 00:47:20;;;;;;;;;;;20.60;99.90;20.60;99192.00;;;;334835;29;91757;-93
2023/06/12 00:47:31;;;;;;;;;;;20.50;99.90;20.70;99187.00;;;;337916;28;83409;-93
2023/06/12 00:47:46;;;;;;;;;;;20.50;99.90;20.70;99191.00;;;;338876;28;90951;-93
2023/06/12 00:47:58;;;;;;;;;;;20.50;99.90;20.70;99193.00;;;;337959;28;83375;-93
2023/06/12 00:48:10;;;;;;;;;;;20.50;99.90;20.70;99197.00;;;;337412;28;90219;-93
2023/06/12 00:48:22;;;;;;;;;;;20.50;99.90;20.70;99190.00;;;;340585;28;82532;-93
2023/06/12 00:48:34;;;;;;;;;;;20.60;99.90;20.80;99193.00;;;;338873;28;90639;-93
2023/06/12 00:48:47;;;;;;;;;;;20.60;99.90;20.80;99188.00;;;;337888;28;83422;-93
2023/06/12 00:49:01;;;;;;;;;;;20.50;99.90;20.90;99194.00;;;;337496;28;91401;-93
2023/06/12 00:49:13;;;;;;;;;;;20.60;99.90;20.80;99190.00;;;;339298;28;82589;-93
2023/06/12 00:49:25;;;;;;;;;;;20.60;99.90;20.80;99184.00;;;;337342;28;89492;-93
2023/06/12 00:49:37;;;;;;;;;;;20.60;99.90;20.80;99191.00;;;;340572;28;82495;-92
2023/06/12 00:49:49;;;;;;;;;;;20.60;99.90;20.70;99193.00;;;;341538;28;91086;-93
2023/06/12 00:50:01;;;;;;;;;;;20.60;99.90;20.70;99192.00;;;;339323;28;82478;-93
2023/06/12 00:50:13;;;;;;;;;;;20.60;99.90;20.70;99190.00;;;;337715;28;87895;-93
2023/06/12 00:50:28;;;;;;;;;;;20.60;99.90;20.80;99184.00;;;;340648;28;83463;-92
2023/06/12 00:50:41;;;;;;;;;;;20.60;99.90;20.80;99187.00;;;;338825;28;90795;-93
2023/06/12 00:50:53;;;;;;;;;;;20.60;99.90;20.70;99199.00;;;;341857;28;83382;-93
2023/06/12 00:51:08;;;;;;;;;;;20.60;99.90;20.70;99194.00;;;;341310;28;90424;-93
2023/06/12 00:51:20;;;;;;;;;;;20.60;99.90;20.80;99188.00;;;;339090;28;83483;-93
2023/06/12 00:51:33;;;;;;;;;;;20.60;99.90;20.80;99187.00;;;;339854;28;91551;-93
2023/06/12 00:51:47;;;;;;;;;;;20.60;99.90;20.90;99187.00;;;;339294;28;83383;-93
2023/06/12 00:51:58;;;;;;;;;;;20.60;99.90;20.90;99190.00;;;;339014;28;88804;-93
2023/06/12 00:52:11;;;;;;;;;;;20.60;99.90;20.80;99188.00;;;;340669;28;82556;-93
2023/06/12 00:52:24;;;;;;;;;;;20.60;99.90;20.80;99187.00;;;;342933;28;89697;-94
2023/06/12 00:52:36;;;;;;;;;;;20.60;99.90;20.80;99186.00;;;;339238;28;83385;-93
2023/06/12 00:52:48;;;;;;;;;;;20.60;99.90;20.80;99190.00;;;;340053;28;90828;-94
2023/06/12 00:53:00;;;;;;;;;;;20.60;99.90;20.80;99191.00;;;;344432;28;83549;-93
2023/06/12 00:53:12;;;;;;;;;;;20.60;99.90;20.80;99189.00;;;;341499;28;92548;-93
2023/06/12 00:53:24;;;;;;;;;;;20.60;99.90;20.80;99192.00;;;;342057;28;83487;-93
2023/06/12 00:53:36;;;;;;;;;;;20.60;99.90;20.80;99189.00;;;;342777;28;89862;-93
2023/06/12 00:53:52;;;;;;;;;;;20.60;99.90;20.80;99188.00;;;;340660;28;83239;-93
2023/06/12 00:54:04;;;;;;;;;;;20.60;99.90;20.70;99193.00;;;;341715;28;90190;-93
2023/06/12 00:54:16;;;;;;;;;;;20.60;99.90;20.60;99185.00;;;;341814;28;83586;-93
2023/06/12 00:54:28;;;;;;;;;;;20.60;99.90;20.50;99195.00;;;;338668;28;91762;-93
2023/06/12 00:54:40;;;;;;;;;;;20.60;99.90;20.50;99194.00;;;;343398;28;83413;-93
2023/06/12 00:54:52;;;;;;;;;;;20.60;99.90;20.50;99186.00;;;;338788;28;91771;-93
2023/06/12 00:55:05;;;;;;;;;;;20.50;99.90;20.50;99189.00;;;;339337;28;83456;-93
2023/06/12 00:55:16;;;;;;;;;;;20.60;99.90;20.50;99193.00;;;;341547;28;91842;-93
2023/06/12 00:55:34;;;;;;;;;;;20.60;99.90;20.50;99188.00;;;;340594;28;84138;-93
2023/06/12 00:55:46;;;;;;;;;;;20.60;99.90;20.50;99185.00;;;;340302;28;90631;-92
2023/06/12 00:55:58;;;;;;;;;;;20.60;99.90;20.50;99190.00;;;;342243;28;82498;-93
2023/06/12 00:56:10;;;;;;;;;;;20.60;99.90;20.50;99190.00;;;;340476;28;90450;-93
2023/06/12 00:56:22;;;;;;;;;;;20.60;99.90;20.60;99187.00;;;;339609;28;83481;-93
2023/06/12 00:56:34;;;;;;;;;;;20.60;99.90;20.60;99183.00;;;;340264;28;90442;-93
2023/06/12 00:56:46;;;;;;;;;;;20.60;99.90;20.60;99190.00;;;;340896;28;83525;-93
2023/06/12 00:56:58;;;;;;;;;;;20.50;99.90;20.70;99184.00;;;;339179;28;88720;-93
2023/06/12 00:57:11;;;;;;;;;;;20.60;99.90;20.70;99185.00;;;;341056;28;82448;-93
2023/06/12 00:57:23;;;;;;;;;;;20.50;99.90;20.70;99179.00;;;;340463;28;90375;-93
2023/06/12 00:57:37;;;;;;;;;;;20.50;99.90;20.60;99185.00;;;;339639;28;83486;-93
2023/06/12 00:57:48;;;;;;;;;;;20.50;99.90;20.60;99183.00;;;;344664;28;91037;-93
2023/06/12 00:58:01;;;;;;;;;;;20.50;99.90;20.50;99191.00;;;;339978;28;82452;-93
2023/06/12 00:58:13;;;;;;;;;;;20.50;99.90;20.50;99186.00;;;;340694;28;90227;-93
2023/06/12 00:58:25;;;;;;;;;;;20.50;99.90;20.60;99182.00;;;;341264;28;82431;-93
2023/06/12 00:58:37;;;;;;;;;;;20.50;99.90;20.70;99180.00;;;;339409;28;90224;-93
2023/06/12 00:58:52;;;;;;;;;;;20.50;99.90;20.60;99187.00;;;;342538;28;83491;-93
2023/06/12 00:59:04;;;;;;;;;;;20.50;99.90;20.60;99180.00;;;;339451;28;90159;-93
2023/06/12 00:59:18;;;;;;;;;;;20.50;99.90;20.60;99185.00;;;;339770;28;83339;-93
2023/06/12 00:59:30;;;;;;;;;;;20.50;99.90;20.50;99182.00;;;;337977;28;92116;-92
2023/06/12 00:59:42;;;;;;;;;;;20.50;99.90;20.50;99175.00;;;;342430;28;83453;-93
2023/06/12 00:59:54;;;;;;;;;;;20.50;99.90;20.50;99184.00;;;;344770;28;90626;-93
2023/06/12 01:00:07;;;;;;;;;;;20.50;99.90;20.50;99181.00;;;;340844;28;83438;-93
2023/06/12 01:00:20;;;;;;;;;;;20.50;99.90;20.50;99177.00;;;;342141;28;90807;-93
2023/06/12 01:00:32;;;;;;;;;;;20.50;99.90;20.50;99181.00;;;;345114;28;82449;-93
2023/06/12 01:00:44;;;;;;;;;;;20.50;99.90;20.50;99183.00;;;;345683;28;90626;-93
2023/06/12 01:00:57;;;;;;;;;;;20.50;99.90;20.60;99185.00;;;;343812;28;82384;-94
2023/06/12 01:01:10;;;;;;;;;;;20.50;99.90;20.60;99176.00;;;;342131;28;91380;-93
2023/06/12 01:01:25;;;;;;;;;;;20.50;99.90;20.60;99179.00;;;;341261;28;82534;-93
2023/06/12 01:01:37;;;;;;;;;;;20.50;99.90;20.70;99181.00;;;;344688;28;91418;-93
2023/06/12 01:01:50;;;;;;;;;;;20.50;99.90;20.60;99175.00;;;;342366;28;82413;-93
2023/06/12 01:02:02;;;;;;;;;;;20.50;99.90;20.60;99180.00;;;;340621;28;89251;-93
2023/06/12 01:02:14;;;;;;;;;;;20.50;99.90;20.50;99173.00;;;;343859;28;82489;-93
2023/06/12 01:02:26;;;;;;;;;;;20.50;99.90;20.50;99178.00;;;;342093;28;90643;-93
2023/06/12 01:02:42;;;;;;;;;;;20.50;99.90;20.50;99187.00;;;;345217;28;82487;-94
2023/06/12 01:03:04;;;;;;;;;;;20.50;99.90;20.60;99184.00;;;;341542;28;90581;-93
2023/06/12 01:03:17;;;;;;;;;;;20.50;99.90;20.60;99181.00;;;;343068;28;83365;-93
2023/06/12 01:03:29;;;;;;;;;;;20.50;99.90;20.60;99181.00;;;;343962;28;89451;-92
2023/06/12 01:03:41;;;;;;;;;;;20.50;99.90;20.70;99182.00;;;;343088;28;83456;-94
2023/06/12 01:03:56;;;;;;;;;;;20.50;99.90;20.80;99178.00;;;;340079;28;91118;-92